Time;durP1;ratioP1;P1;durP2;ratioP2;P2;SDS_P1;SDS_P2;PMS_P1;PMS_P2;Temp;Humidity;BMP_temperature;BMP_pressure;BME280_temperature;BME280_humidity;BME280_pressure;Samples;Min_cycle;Max_cycle;Signal;HPM_P1;HPM_P2
2022/11/24 00:02:19;;;;;;;;;;;8.40;99.90;;;;;;6273568;22;19941;-87
2022/11/24 00:04:44;;;;;;;;;;;8.40;99.90;;;;;;6247824;22;19976;-87
2022/11/24 00:07:09;;;;;;;;;;;8.40;99.90;;;;;;6274503;22;19978;-87
2022/11/24 00:09:35;;;;;;;;;;;8.40;99.90;;;;;;6274476;22;20410;-87
2022/11/24 00:12:01;;;;;;;;;;;8.40;99.90;;;;;;6274946;22;19903;-87
2022/11/24 00:14:26;;;;;;;;;;;8.40;99.90;;;;;;6273957;22;19982;-87
2022/11/24 00:16:51;;;;;;;;;;;8.30;99.90;;;;;;6274564;22;19910;-87
2022/11/24 00:19:17;;;;;;;;;;;8.30;99.90;;;;;;6275749;22;19904;-87
2022/11/24 00:21:43;;;;;;;;;;;8.30;99.90;;;;;;6275803;22;19903;-87
2022/11/24 00:24:08;;;;;;;;;;;8.20;99.90;;;;;;6273757;22;20225;-89
2022/11/24 00:26:36;;;;;;;;;;;8.10;99.90;;;;;;6247029;22;19911;-87
2022/11/24 00:29:03;;;;;;;;;;;8.20;99.90;;;;;;6274040;22;19910;-87
2022/11/24 00:31:30;;;;;;;;;;;8.20;99.90;;;;;;6273747;22;19904;-87
2022/11/24 00:33:57;;;;;;;;;;;8.20;99.90;;;;;;6274193;22;19907;-86
2022/11/24 00:36:23;;;;;;;;;;;8.10;99.90;;;;;;6246389;22;20012;-88
2022/11/24 00:38:56;;;;;;;;;;;8.20;99.90;;;;;;6273784;22;20332;-87
2022/11/24 00:41:22;;;;;;;;;;;8.10;99.90;;;;;;6274631;22;19908;-87
2022/11/24 00:43:48;;;;;;;;;;;8.10;99.90;;;;;;6274817;22;19918;-87
2022/11/24 00:46:14;;;;;;;;;;;8.00;99.90;;;;;;6247825;22;19910;-86
2022/11/24 00:48:39;;;;;;;;;;;8.10;99.90;;;;;;6274013;22;19904;-87
2022/11/24 00:51:06;;;;;;;;;;;8.00;99.90;;;;;;6274025;22;19907;-87
2022/11/24 00:53:32;;;;;;;;;;;8.00;99.90;;;;;;6273988;22;19909;-87
2022/11/24 00:55:58;;;;;;;;;;;8.10;99.90;;;;;;6273346;22;19938;-87
2022/11/24 00:58:23;;;;;;;;;;;8.30;99.90;;;;;;6246040;22;19990;-87
2022/11/24 01:00:50;;;;;;;;;;;8.10;99.90;;;;;;6273937;22;19925;-87
2022/11/24 01:03:16;;;;;;;;;;;8.10;99.90;;;;;;6273884;22;19907;-87
2022/11/24 01:05:42;;;;;;;;;;;8.10;99.90;;;;;;6273321;22;19912;-88
2022/11/24 01:08:07;;;;;;;;;;;8.50;99.90;;;;;;6272802;22;19908;-87
2022/11/24 01:10:33;;;;;;;;;;;8.10;99.90;;;;;;6245828;22;19949;-86
2022/11/24 01:12:59;;;;;;;;;;;8.10;99.90;;;;;;6273500;22;19904;-87
2022/11/24 01:15:24;;;;;;;;;;;8.00;99.90;;;;;;6247011;22;19907;-87
2022/11/24 01:17:50;;;;;;;;;;;8.20;99.90;;;;;;6274442;22;19903;-88
2022/11/24 01:20:16;;;;;;;;;;;8.00;99.90;;;;;;6274354;22;19931;-86
2022/11/24 01:22:41;;;;;;;;;;;7.90;99.90;;;;;;6273477;22;19903;-88
2022/11/24 01:25:08;;;;;;;;;;;8.90;99.90;;;;;;6273064;22;19919;-86
2022/11/24 01:27:33;;;;;;;;;;;7.80;99.90;;;;;;6246078;22;19986;-87
2022/11/24 01:29:59;;;;;;;;;;;8.00;99.90;;;;;;6273389;22;19918;-86
2022/11/24 01:32:24;;;;;;;;;;;7.80;99.90;;;;;;6273260;22;19959;-88
2022/11/24 01:34:50;;;;;;;;;;;9.40;99.90;;;;;;6274078;22;19907;-86
2022/11/24 01:37:15;;;;;;;;;;;7.90;99.90;;;;;;6273031;22;19904;-86
2022/11/24 01:39:41;;;;;;;;;;;7.90;99.90;;;;;;6273418;22;20580;-87
2022/11/24 01:42:06;;;;;;;;;;;7.90;99.90;;;;;;6273353;22;19903;-86
2022/11/24 01:44:32;;;;;;;;;;;7.90;99.90;;;;;;6272802;22;19912;-87
2022/11/24 01:46:57;;;;;;;;;;;8.00;99.90;;;;;;6272953;22;19907;-86
2022/11/24 01:49:28;;;;;;;;;;;8.10;99.90;;;;;;6273334;22;19961;-87
2022/11/24 01:52:08;;;;;;;;;;;7.90;99.90;;;;;;6273206;22;19982;-88
2022/11/24 01:54:46;;;;;;;;;;;7.80;99.90;;;;;;6273098;22;19956;-87
2022/11/24 01:57:25;;;;;;;;;;;7.80;99.90;;;;;;6272655;22;19903;-87
2022/11/24 01:59:54;;;;;;;;;;;7.80;99.90;;;;;;6274266;22;19955;-85
2022/11/24 02:02:20;;;;;;;;;;;7.80;99.90;;;;;;6274016;22;19904;-86
2022/11/24 02:04:46;;;;;;;;;;;7.80;99.90;;;;;;6272791;22;20355;-86
2022/11/24 02:07:13;;;;;;;;;;;7.70;99.90;;;;;;6272647;22;19904;-88
2022/11/24 02:09:47;;;;;;;;;;;7.90;99.90;;;;;;6245797;22;19903;-87
2022/11/24 02:12:13;;;;;;;;;;;7.70;99.90;;;;;;6273093;22;20087;-87
2022/11/24 02:14:39;;;;;;;;;;;7.60;99.90;;;;;;6273016;22;20286;-87
2022/11/24 02:17:05;;;;;;;;;;;7.60;99.90;;;;;;6273318;22;19914;-86
2022/11/24 02:19:30;;;;;;;;;;;7.60;99.90;;;;;;6272921;22;19903;-86
2022/11/24 02:21:56;;;;;;;;;;;7.60;99.90;;;;;;6273277;22;19903;-89
2022/11/24 02:24:45;;;;;;;;;;;7.60;99.90;;;;;;6273560;22;19911;-88
2022/11/24 02:27:10;;;;;;;;;;;7.60;99.90;;;;;;6202564;22;19904;-88
2022/11/24 02:29:36;;;;;;;;;;;8.10;99.90;;;;;;6272809;22;20324;-86
2022/11/24 02:32:03;;;;;;;;;;;7.70;99.90;;;;;;6272879;22;19982;-86
2022/11/24 02:34:29;;;;;;;;;;;7.60;99.90;;;;;;6272532;22;19903;-86
2022/11/24 02:36:54;;;;;;;;;;;7.50;99.90;;;;;;6273428;22;19986;-88
2022/11/24 02:39:20;;;;;;;;;;;7.60;99.90;;;;;;6273073;22;19911;-87
2022/11/24 02:41:50;;;;;;;;;;;8.20;99.90;;;;;;6244991;22;20327;-86
2022/11/24 02:44:16;;;;;;;;;;;7.50;99.90;;;;;;6272434;22;20351;-87
2022/11/24 02:46:42;;;;;;;;;;;8.10;99.90;;;;;;6272881;22;19903;-87
2022/11/24 02:49:07;;;;;;;;;;;8.00;99.90;;;;;;6272891;22;19911;-87
2022/11/24 02:51:36;;;;;;;;;;;7.90;99.90;;;;;;6272680;22;19910;-85
2022/11/24 02:54:01;;;;;;;;;;;7.80;99.90;;;;;;6246018;22;19903;-87
2022/11/24 02:56:27;;;;;;;;;;;7.50;99.90;;;;;;6273275;22;19910;-86
2022/11/24 02:58:52;;;;;;;;;;;7.40;99.90;;;;;;6274353;22;20393;-86
2022/11/24 03:01:18;;;;;;;;;;;7.50;99.90;;;;;;6245547;22;19910;-86
2022/11/24 03:03:43;;;;;;;;;;;8.50;99.90;;;;;;6246492;22;19911;-88
2022/11/24 03:06:09;;;;;;;;;;;7.30;99.90;;;;;;6273430;22;19903;-86
2022/11/24 03:08:34;;;;;;;;;;;8.40;99.90;;;;;;6273803;22;19914;-86
2022/11/24 03:11:00;;;;;;;;;;;7.50;99.90;;;;;;6273965;22;19903;-87
2022/11/24 03:13:26;;;;;;;;;;;7.60;99.90;;;;;;6274458;22;19911;-87
2022/11/24 03:15:51;;;;;;;;;;;8.30;99.90;;;;;;6274031;22;19904;-88
2022/11/24 03:18:17;;;;;;;;;;;7.40;99.90;;;;;;6246336;22;19939;-87
2022/11/24 03:20:43;;;;;;;;;;;7.30;99.90;;;;;;6273271;22;19982;-87
2022/11/24 03:23:08;;;;;;;;;;;7.30;99.90;;;;;;6273588;22;20238;-87
2022/11/24 03:25:34;;;;;;;;;;;7.70;99.90;;;;;;6273584;22;19911;-87
2022/11/24 03:28:00;;;;;;;;;;;7.00;99.90;;;;;;6273514;22;19940;-87
2022/11/24 03:30:25;;;;;;;;;;;7.10;99.90;;;;;;6274652;22;19990;-88
2022/11/24 03:32:52;;;;;;;;;;;7.10;99.90;;;;;;6246237;22;19903;-86
2022/11/24 03:35:18;;;;;;;;;;;7.00;99.90;;;;;;6246113;22;20298;-87
2022/11/24 03:37:44;;;;;;;;;;;7.10;99.90;;;;;;6273823;22;19931;-87
2022/11/24 03:40:09;;;;;;;;;;;7.10;99.90;;;;;;6273564;22;19957;-88
2022/11/24 03:42:35;;;;;;;;;;;7.10;99.90;;;;;;6273881;22;19907;-86
2022/11/24 03:45:00;;;;;;;;;;;7.20;99.90;;;;;;6273318;22;20398;-88
2022/11/24 03:47:26;;;;;;;;;;;7.10;99.90;;;;;;6246958;22;19910;-86
2022/11/24 03:49:51;;;;;;;;;;;7.50;99.90;;;;;;6273350;22;19910;-86
2022/11/24 03:52:17;;;;;;;;;;;7.30;99.90;;;;;;6273418;22;19907;-86
2022/11/24 03:54:42;;;;;;;;;;;8.70;99.90;;;;;;6273813;22;19911;-86
2022/11/24 03:57:08;;;;;;;;;;;7.30;99.90;;;;;;6273725;22;19949;-87
2022/11/24 03:59:33;;;;;;;;;;;7.30;99.90;;;;;;6273563;22;19949;-87
2022/11/24 04:01:59;;;;;;;;;;;7.30;99.90;;;;;;6247944;22;19990;-86
2022/11/24 04:04:25;;;;;;;;;;;7.30;99.90;;;;;;6275280;22;19915;-86
2022/11/24 04:06:50;;;;;;;;;;;7.30;99.90;;;;;;6274196;22;20324;-90
2022/11/24 04:09:16;;;;;;;;;;;7.30;99.90;;;;;;6246933;22;19903;-87
2022/11/24 04:14:25;;;;;;;;;;;7.70;99.90;;;;;;6274410;22;19914;-87
2022/11/24 04:16:51;;;;;;;;;;;7.20;99.90;;;;;;6273517;22;19907;-87
2022/11/24 04:19:16;;;;;;;;;;;8.00;99.90;;;;;;6273885;22;20374;-87
2022/11/24 04:21:42;;;;;;;;;;;8.30;99.90;;;;;;6247045;22;19915;-87
2022/11/24 04:24:07;;;;;;;;;;;7.10;99.90;;;;;;6246833;22;19938;-86
2022/11/24 04:26:33;;;;;;;;;;;7.00;99.90;;;;;;6273995;22;19931;-87
2022/11/24 04:28:58;;;;;;;;;;;7.00;99.90;;;;;;6274877;22;19910;-88
2022/11/24 04:31:24;;;;;;;;;;;7.00;99.90;;;;;;6273884;22;20350;-88
2022/11/24 04:33:49;;;;;;;;;;;7.00;99.90;;;;;;6273874;22;20303;-87
2022/11/24 04:36:15;;;;;;;;;;;7.10;99.90;;;;;;6273557;22;19987;-86
2022/11/24 04:38:40;;;;;;;;;;;7.00;99.90;;;;;;6246192;22;19956;-86
2022/11/24 04:41:06;;;;;;;;;;;7.40;99.90;;;;;;6273290;22;20328;-86
2022/11/24 04:43:33;;;;;;;;;;;7.00;99.90;;;;;;6273495;22;19918;-87
2022/11/24 04:45:59;;;;;;;;;;;7.10;99.90;;;;;;6274137;22;19934;-86
2022/11/24 04:48:24;;;;;;;;;;;7.50;99.90;;;;;;6246221;22;19904;-87
2022/11/24 04:50:50;;;;;;;;;;;7.10;99.90;;;;;;6272920;22;19904;-87
2022/11/24 04:53:15;;;;;;;;;;;7.10;99.90;;;;;;6272430;22;19908;-87
2022/11/24 04:55:41;;;;;;;;;;;7.10;99.90;;;;;;6273772;22;19903;-86
2022/11/24 04:58:10;;;;;;;;;;;7.20;99.90;;;;;;6272129;22;19941;-84
2022/11/24 05:00:36;;;;;;;;;;;7.20;99.90;;;;;;6272259;22;19907;-85
2022/11/24 05:03:02;;;;;;;;;;;7.20;99.90;;;;;;6274188;22;19960;-86
2022/11/24 05:05:27;;;;;;;;;;;7.20;99.90;;;;;;6276317;22;19907;-88
2022/11/24 05:07:53;;;;;;;;;;;7.20;99.90;;;;;;6275526;22;20387;-87
2022/11/24 05:10:33;;;;;;;;;;;7.20;99.90;;;;;;6273404;22;19903;-85
2022/11/24 05:12:59;;;;;;;;;;;7.40;99.90;;;;;;6272847;22;19910;-85
2022/11/24 05:15:25;;;;;;;;;;;7.20;99.90;;;;;;6271635;22;19907;-85
2022/11/24 05:17:50;;;;;;;;;;;7.10;99.90;;;;;;6271691;22;19904;-85
2022/11/24 05:20:17;;;;;;;;;;;7.10;99.90;;;;;;6265481;22;19904;-84
2022/11/24 05:22:43;;;;;;;;;;;7.20;99.90;;;;;;6242253;22;20225;-85
2022/11/24 05:25:08;;;;;;;;;;;7.10;99.90;;;;;;6242100;22;19922;-86
2022/11/24 05:27:34;;;;;;;;;;;7.20;99.90;;;;;;6271000;22;20383;-84
2022/11/24 05:29:59;;;;;;;;;;;7.20;99.90;;;;;;6271356;22;19926;-84
2022/11/24 05:32:25;;;;;;;;;;;7.20;99.90;;;;;;6243916;22;19953;-85
2022/11/24 05:34:51;;;;;;;;;;;7.20;99.90;;;;;;6271327;22;19941;-86
2022/11/24 05:37:17;;;;;;;;;;;7.20;99.90;;;;;;6270603;22;20359;-85
2022/11/24 05:39:42;;;;;;;;;;;7.30;99.90;;;;;;6251586;22;19958;-86
2022/11/24 05:45:15;;;;;;;;;;;7.20;99.90;;;;;;6215353;23;19951;-88
2022/11/24 05:47:41;;;;;;;;;;;7.20;99.90;;;;;;6218675;23;19934;-91
2022/11/24 05:50:10;;;;;;;;;;;7.20;99.90;;;;;;6246733;22;19907;-88
2022/11/24 05:52:35;;;;;;;;;;;7.20;99.90;;;;;;6275149;22;19908;-87
2022/11/24 05:55:01;;;;;;;;;;;7.20;99.90;;;;;;6273416;22;19910;-93
2022/11/24 05:57:26;;;;;;;;;;;7.20;99.90;;;;;;6272319;22;19903;-92
2022/11/24 05:59:52;;;;;;;;;;;7.20;99.90;;;;;;6272352;22;20236;-91
2022/11/24 06:02:18;;;;;;;;;;;7.10;99.90;;;;;;6272108;22;19903;-92
2022/11/24 06:04:43;;;;;;;;;;;7.60;99.90;;;;;;6271950;22;19952;-88
2022/11/24 06:07:10;;;;;;;;;;;7.20;99.90;;;;;;6272744;22;19903;-93
2022/11/24 06:09:36;;;;;;;;;;;7.40;99.90;;;;;;6272174;22;19923;-85
2022/11/24 06:12:02;;;;;;;;;;;7.20;99.90;;;;;;6275063;22;19907;-91
2022/11/24 06:14:28;;;;;;;;;;;7.20;99.90;;;;;;6272590;22;19978;-85
2022/11/24 06:16:53;;;;;;;;;;;7.20;99.90;;;;;;6270740;22;19903;-93
2022/11/24 06:19:19;;;;;;;;;;;8.20;99.90;;;;;;6272305;22;19911;-91
2022/11/24 06:21:44;;;;;;;;;;;7.20;99.90;;;;;;6271857;22;20389;-90
2022/11/24 06:24:10;;;;;;;;;;;8.80;99.90;;;;;;6271498;22;20005;-90
2022/11/24 06:26:36;;;;;;;;;;;7.20;99.90;;;;;;6273042;22;19915;-88
2022/11/24 06:29:01;;;;;;;;;;;8.10;99.90;;;;;;6273097;22;19910;-89
2022/11/24 06:31:27;;;;;;;;;;;7.30;99.90;;;;;;6269993;22;19929;-88
2022/11/24 06:33:52;;;;;;;;;;;7.60;99.90;;;;;;6271803;22;19926;-91
2022/11/24 06:36:18;;;;;;;;;;;7.90;99.90;;;;;;6272004;22;19932;-90
2022/11/24 06:38:43;;;;;;;;;;;7.20;99.90;;;;;;6273763;22;20304;-91
2022/11/24 06:41:10;;;;;;;;;;;7.30;99.90;;;;;;6273675;22;19911;-92
2022/11/24 06:43:36;;;;;;;;;;;7.30;99.90;;;;;;6274795;22;20264;-89
2022/11/24 06:46:02;;;;;;;;;;;7.20;99.90;;;;;;6274985;22;19952;-91
2022/11/24 06:48:28;;;;;;;;;;;7.30;99.90;;;;;;6273584;22;19938;-90
2022/11/24 06:50:57;;;;;;;;;;;7.10;99.90;;;;;;6273410;22;19946;-91
2022/11/24 06:53:23;;;;;;;;;;;7.40;99.90;;;;;;6273594;22;19941;-90
2022/11/24 06:55:48;;;;;;;;;;;7.30;99.90;;;;;;6273863;22;19904;-91
2022/11/24 06:58:14;;;;;;;;;;;7.90;99.90;;;;;;6273678;22;19995;-90
2022/11/24 07:00:39;;;;;;;;;;;7.30;99.90;;;;;;6273505;22;20239;-89
2022/11/24 07:03:05;;;;;;;;;;;7.30;99.90;;;;;;6274503;22;19911;-91
2022/11/24 07:05:30;;;;;;;;;;;7.20;99.90;;;;;;6273420;22;20343;-90
2022/11/24 07:07:58;;;;;;;;;;;7.30;99.90;;;;;;6273392;22;19926;-92
2022/11/24 07:10:23;;;;;;;;;;;7.30;99.90;;;;;;6273684;22;19982;-91
2022/11/24 07:12:49;;;;;;;;;;;8.40;99.90;;;;;;6273672;22;19910;-90
2022/11/24 07:15:14;;;;;;;;;;;7.20;99.90;;;;;;6273606;22;20026;-88
2022/11/24 07:17:40;;;;;;;;;;;7.30;99.90;;;;;;6273524;22;19910;-87
2022/11/24 07:20:06;;;;;;;;;;;7.90;99.90;;;;;;6274915;22;19913;-92
2022/11/24 07:22:32;;;;;;;;;;;7.20;99.90;;;;;;6273412;22;19930;-91
2022/11/24 07:24:57;;;;;;;;;;;7.30;99.90;;;;;;6274008;22;20347;-90
2022/11/24 07:27:23;;;;;;;;;;;7.20;99.90;;;;;;6273644;22;19942;-89
2022/11/24 07:29:48;;;;;;;;;;;7.70;99.90;;;;;;6273660;22;19903;-91
2022/11/24 07:32:14;;;;;;;;;;;7.30;99.90;;;;;;6273612;22;20443;-92
2022/11/24 07:34:40;;;;;;;;;;;7.20;99.90;;;;;;6274327;22;19910;-84
2022/11/24 07:37:05;;;;;;;;;;;7.20;99.90;;;;;;6274436;22;19991;-92
2022/11/24 07:39:31;;;;;;;;;;;7.20;99.90;;;;;;6273463;22;19911;-87
2022/11/24 07:41:59;;;;;;;;;;;8.10;99.90;;;;;;6273387;22;20327;-89
2022/11/24 07:44:25;;;;;;;;;;;7.20;99.90;;;;;;6273113;22;19915;-89
2022/11/24 07:46:51;;;;;;;;;;;7.30;99.90;;;;;;6273358;22;20335;-87
2022/11/24 07:49:17;;;;;;;;;;;7.10;99.90;;;;;;6273157;22;20275;-91
2022/11/24 07:51:42;;;;;;;;;;;8.10;99.90;;;;;;6273132;22;20340;-89
2022/11/24 07:54:08;;;;;;;;;;;8.00;99.90;;;;;;6274244;22;19903;-89
2022/11/24 07:56:34;;;;;;;;;;;7.30;99.90;;;;;;6272961;22;19911;-88
2022/11/24 07:58:59;;;;;;;;;;;7.30;99.90;;;;;;6273040;22;19907;-91
2022/11/24 08:01:25;;;;;;;;;;;8.30;99.90;;;;;;6272874;22;19907;-87
2022/11/24 08:03:51;;;;;;;;;;;7.10;99.90;;;;;;6272849;22;19926;-89
2022/11/24 08:06:17;;;;;;;;;;;7.30;99.90;;;;;;6272865;22;19908;-88
2022/11/24 08:08:43;;;;;;;;;;;7.40;99.90;;;;;;6273282;22;19969;-86
2022/11/24 08:11:12;;;;;;;;;;;7.50;99.90;;;;;;6273869;22;19904;-88
2022/11/24 08:13:38;;;;;;;;;;;7.60;99.90;;;;;;6274081;22;19982;-90
2022/11/24 08:16:04;;;;;;;;;;;8.40;99.90;;;;;;6273169;22;19938;-89
2022/11/24 08:18:30;;;;;;;;;;;7.70;99.90;;;;;;6274364;22;19903;-88
2022/11/24 08:20:58;;;;;;;;;;;9.00;99.90;;;;;;6274157;22;19930;-88
2022/11/24 08:23:24;;;;;;;;;;;7.80;99.90;;;;;;6274265;22;19915;-89
2022/11/24 08:25:49;;;;;;;;;;;7.90;99.90;;;;;;6273824;22;19907;-87
2022/11/24 08:28:15;;;;;;;;;;;8.60;99.90;;;;;;6273222;22;19953;-89
2022/11/24 08:30:40;;;;;;;;;;;8.10;99.90;;;;;;6273993;22;20248;-89
2022/11/24 08:33:06;;;;;;;;;;;8.10;99.90;;;;;;6272592;22;20312;-86
2022/11/24 08:35:34;;;;;;;;;;;8.20;99.90;;;;;;6273211;22;19911;-89
2022/11/24 08:38:00;;;;;;;;;;;8.60;99.90;;;;;;6272931;22;19910;-90
2022/11/24 08:40:26;;;;;;;;;;;8.30;99.90;;;;;;6272781;22;19918;-89
2022/11/24 08:42:55;;;;;;;;;;;8.20;99.90;;;;;;6272664;22;19903;-87
2022/11/24 08:45:21;;;;;;;;;;;8.00;99.90;;;;;;6272401;22;19911;-88
2022/11/24 08:47:50;;;;;;;;;;;8.10;99.90;;;;;;6272513;22;19930;-85
2022/11/24 08:50:15;;;;;;;;;;;8.10;99.90;;;;;;6272646;22;19903;-85
2022/11/24 08:52:41;;;;;;;;;;;8.40;99.90;;;;;;6273593;22;19951;-85
2022/11/24 08:55:07;;;;;;;;;;;8.40;99.90;;;;;;6272749;22;20252;-89
2022/11/24 08:57:32;;;;;;;;;;;8.40;99.90;;;;;;6272322;22;19907;-85
2022/11/24 08:59:58;;;;;;;;;;;8.60;99.90;;;;;;6272174;22;20282;-84
2022/11/24 09:02:23;;;;;;;;;;;8.60;99.90;;;;;;6272377;22;19911;-86
2022/11/24 09:04:48;;;;;;;;;;;8.60;99.90;;;;;;6272451;22;19911;-85
2022/11/24 09:07:14;;;;;;;;;;;8.60;99.90;;;;;;6273694;22;19935;-84
2022/11/24 09:09:39;;;;;;;;;;;8.70;99.90;;;;;;6272892;22;19904;-83
2022/11/24 09:12:07;;;;;;;;;;;8.80;99.90;;;;;;6245145;22;20389;-85
2022/11/24 09:14:32;;;;;;;;;;;8.90;99.90;;;;;;6245119;22;19957;-86
2022/11/24 09:16:58;;;;;;;;;;;9.00;99.90;;;;;;6271879;22;19904;-85
2022/11/24 09:19:23;;;;;;;;;;;9.10;99.90;;;;;;6272216;22;20320;-87
2022/11/24 09:21:49;;;;;;;;;;;9.20;99.90;;;;;;6245140;22;20281;-83
2022/11/24 09:24:15;;;;;;;;;;;9.20;99.90;;;;;;6273103;22;19912;-83
2022/11/24 09:26:41;;;;;;;;;;;9.30;99.90;;;;;;6271936;22;20292;-85
2022/11/24 09:29:09;;;;;;;;;;;10.20;99.90;;;;;;6272019;22;19911;-83
2022/11/24 09:31:36;;;;;;;;;;;9.60;99.90;;;;;;6271798;22;19927;-84
2022/11/24 09:34:06;;;;;;;;;;;9.60;99.90;;;;;;6271926;22;19903;-87
2022/11/24 09:36:32;;;;;;;;;;;9.70;99.90;;;;;;6271934;22;19956;-84
2022/11/24 09:38:58;;;;;;;;;;;10.50;99.90;;;;;;6271821;22;19982;-83
2022/11/24 09:41:29;;;;;;;;;;;9.80;99.90;;;;;;6272006;22;19907;-87
2022/11/24 09:44:07;;;;;;;;;;;9.90;99.90;;;;;;6271849;22;19990;-88
2022/11/24 09:46:59;;;;;;;;;;;9.90;99.90;;;;;;6272068;22;20336;-88
2022/11/24 09:49:43;;;;;;;;;;;10.00;99.90;;;;;;6214015;22;19907;-89
2022/11/24 09:52:09;;;;;;;;;;;10.00;99.90;;;;;;6271938;22;20311;-90
2022/11/24 09:54:38;;;;;;;;;;;10.10;99.90;;;;;;6271812;22;19981;-90
2022/11/24 09:57:04;;;;;;;;;;;10.20;99.90;;;;;;6272113;22;19903;-91
2022/11/24 09:59:30;;;;;;;;;;;10.30;99.90;;;;;;6271895;22;19905;-88
2022/11/24 10:01:55;;;;;;;;;;;10.40;99.90;;;;;;6272011;22;19913;-92
2022/11/24 10:04:24;;;;;;;;;;;10.50;99.90;;;;;;6244756;22;19918;-90
2022/11/24 10:06:55;;;;;;;;;;;10.60;99.90;;;;;;6271891;22;19978;-88
2022/11/24 10:09:35;;;;;;;;;;;10.60;99.90;;;;;;6245146;22;19937;-89
2022/11/24 10:12:03;;;;;;;;;;;10.60;99.90;;;;;;6272593;22;19907;-86
2022/11/24 10:14:41;;;;;;;;;;;10.80;99.90;;;;;;6274046;22;20354;-91
2022/11/24 10:17:06;;;;;;;;;;;10.90;99.90;;;;;;6273845;22;19982;-90
2022/11/24 10:19:35;;;;;;;;;;;11.10;99.90;;;;;;6273658;22;20293;-87
2022/11/24 10:22:03;;;;;;;;;;;11.10;99.90;;;;;;6273983;22;19910;-90
2022/11/24 10:24:49;;;;;;;;;;;11.30;99.90;;;;;;6273813;22;19918;-88
2022/11/24 10:27:17;;;;;;;;;;;11.50;99.90;;;;;;6274103;22;20335;-90
2022/11/24 10:29:43;;;;;;;;;;;11.40;99.90;;;;;;6273609;22;19910;-88
2022/11/24 10:32:20;;;;;;;;;;;11.50;99.90;;;;;;6273794;22;20240;-90
2022/11/24 10:34:48;;;;;;;;;;;11.60;99.90;;;;;;6274969;22;19935;-88
2022/11/24 10:37:36;;;;;;;;;;;11.60;99.90;;;;;;6247688;22;20328;-91
2022/11/24 10:40:17;;;;;;;;;;;11.70;99.90;;;;;;6273680;22;19986;-86
2022/11/24 10:42:42;;;;;;;;;;;11.70;99.90;;;;;;6246423;22;19926;-88
2022/11/24 10:45:13;;;;;;;;;;;11.80;99.90;;;;;;6246386;22;20340;-84
2022/11/24 10:47:38;;;;;;;;;;;12.10;99.90;;;;;;6273652;22;19903;-85
2022/11/24 10:50:24;;;;;;;;;;;11.70;99.90;;;;;;6273546;22;19903;-88
2022/11/24 10:52:55;;;;;;;;;;;11.70;99.90;;;;;;6272702;22;19903;-82
2022/11/24 10:55:21;;;;;;;;;;;11.70;99.90;;;;;;6273698;22;19904;-86
2022/11/24 10:57:47;;;;;;;;;;;11.80;99.90;;;;;;6274502;22;20358;-86
2022/11/24 11:00:18;;;;;;;;;;;11.90;99.90;;;;;;6273450;22;19910;-86
2022/11/24 11:02:44;;;;;;;;;;;11.70;99.90;;;;;;6273382;22;19931;-86
2022/11/24 11:05:28;;;;;;;;;;;11.80;99.90;;;;;;6273236;22;19989;-86
2022/11/24 11:08:29;;;;;;;;;;;11.90;99.90;;;;;;6246666;22;20314;-87
2022/11/24 11:11:14;;;;;;;;;;;11.90;99.90;;;;;;6120623;23;19908;-85
2022/11/24 11:13:50;;;;;;;;;;;11.90;99.90;;;;;;6260780;22;20366;-86
2022/11/24 11:16:26;;;;;;;;;;;11.90;99.90;;;;;;6274259;22;19922;-87
2022/11/24 11:18:51;;;;;;;;;;;11.90;99.90;;;;;;6274030;22;19903;-83
2022/11/24 11:21:32;;;;;;;;;;;11.40;99.90;;;;;;6274245;22;19904;-87
2022/11/24 11:23:59;;;;;;;;;;;12.10;99.90;;;;;;6272714;22;19911;-87
2022/11/24 11:26:26;;;;;;;;;;;12.40;99.90;;;;;;6273253;22;19926;-86
2022/11/24 11:28:59;;;;;;;;;;;12.30;99.90;;;;;;6247160;22;19911;-88
2022/11/24 11:31:25;;;;;;;;;;;11.90;99.90;;;;;;6273096;22;19911;-87
2022/11/24 11:34:00;;;;;;;;;;;12.30;99.90;;;;;;6246924;22;20390;-88
2022/11/24 11:36:27;;;;;;;;;;;12.30;99.90;;;;;;6273048;22;20397;-84
2022/11/24 11:38:53;;;;;;;;;;;12.20;99.90;;;;;;6274277;22;19931;-84
2022/11/24 11:41:20;;;;;;;;;;;12.50;99.90;;;;;;6246852;22;20344;-84
2022/11/24 11:43:48;;;;;;;;;;;12.30;99.90;;;;;;6272854;22;20558;-87
2022/11/24 11:46:17;;;;;;;;;;;12.60;99.90;;;;;;6272938;22;19907;-86
2022/11/24 11:48:45;;;;;;;;;;;12.50;99.90;;;;;;6272922;22;19907;-84
2022/11/24 11:51:19;;;;;;;;;;;12.50;99.90;;;;;;6272645;22;20340;-86
2022/11/24 11:53:53;;;;;;;;;;;12.40;99.90;;;;;;6273018;22;19949;-87
2022/11/24 11:56:19;;;;;;;;;;;12.60;99.90;;;;;;6247372;22;19908;-86
2022/11/24 11:58:50;;;;;;;;;;;12.50;99.90;;;;;;6272821;22;20467;-85
2022/11/24 12:01:36;;;;;;;;;;;12.50;99.90;;;;;;6272752;22;19910;-85
2022/11/24 12:04:02;;;;;;;;;;;;;;;;;;6272959;22;19907;-85
2022/11/24 12:06:33;;;;;;;;;;;12.70;99.90;;;;;;6272878;22;20033;-84
2022/11/24 12:09:12;;;;;;;;;;;12.70;99.90;;;;;;6272875;22;19903;-83
2022/11/24 12:12:04;;;;;;;;;;;12.70;99.90;;;;;;6273129;22;19904;-85
2022/11/24 12:14:39;;;;;;;;;;;12.80;99.90;;;;;;6264018;22;19992;-86
2022/11/24 12:17:10;;;;;;;;;;;12.80;99.90;;;;;;6272866;22;19903;-84
2022/11/24 12:19:40;;;;;;;;;;;12.90;99.90;;;;;;6272643;22;19903;-86
2022/11/24 12:22:35;;;;;;;;;;;12.80;99.90;;;;;;6272757;22;19937;-84
2022/11/24 12:25:19;;;;;;;;;;;12.90;99.90;;;;;;6239678;22;19915;-86
2022/11/24 12:27:58;;;;;;;;;;;13.00;99.90;;;;;;6272500;22;20128;-85
2022/11/24 12:30:24;;;;;;;;;;;13.00;99.90;;;;;;6273636;22;19985;-90
2022/11/24 12:32:53;;;;;;;;;;;13.00;99.90;;;;;;6272392;22;19910;-85
2022/11/24 12:35:33;;;;;;;;;;;13.10;99.90;;;;;;6272163;22;19939;-88
2022/11/24 12:38:17;;;;;;;;;;;13.10;99.90;;;;;;6272517;22;19910;-87
2022/11/24 12:40:56;;;;;;;;;;;13.00;99.90;;;;;;6272291;22;20269;-86
2022/11/24 12:43:28;;;;;;;;;;;13.10;99.90;;;;;;6273546;22;19904;-84
2022/11/24 12:45:59;;;;;;;;;;;13.10;99.90;;;;;;6273752;22;19930;-87
2022/11/24 12:48:24;;;;;;;;;;;13.00;99.90;;;;;;6273692;22;19978;-89
2022/11/24 12:50:50;;;;;;;;;;;13.10;99.90;;;;;;6272329;22;19911;-88
2022/11/24 12:53:18;;;;;;;;;;;13.20;99.90;;;;;;6272321;22;19903;-87
2022/11/24 12:55:44;;;;;;;;;;;13.80;99.90;;;;;;6245004;22;19907;-84
2022/11/24 12:58:24;;;;;;;;;;;13.20;99.90;;;;;;6272474;22;19903;-83
2022/11/24 13:01:05;;;;;;;;;;;13.10;99.90;;;;;;6272328;22;19904;-84
2022/11/24 13:03:40;;;;;;;;;;;13.10;99.90;;;;;;6272228;22;19910;-84
2022/11/24 13:06:17;;;;;;;;;;;13.10;99.90;;;;;;6272081;22;19903;-83
2022/11/24 13:08:42;;;;;;;;;;;13.20;99.90;;;;;;6272394;22;19909;-85
2022/11/24 13:11:24;;;;;;;;;;;13.30;99.90;;;;;;6272361;22;19927;-85
2022/11/24 13:14:01;;;;;;;;;;;13.30;99.90;;;;;;6272036;22;20259;-85
2022/11/24 13:16:27;;;;;;;;;;;13.30;99.90;;;;;;6273159;22;20037;-86
2022/11/24 13:19:06;;;;;;;;;;;13.40;99.90;;;;;;6272387;22;19903;-88
2022/11/24 13:21:46;;;;;;;;;;;13.30;99.90;;;;;;6272320;22;19903;-84
2022/11/24 13:24:17;;;;;;;;;;;13.30;99.90;;;;;;6271879;22;19912;-88
2022/11/24 13:26:43;;;;;;;;;;;13.40;99.90;;;;;;6271865;22;19903;-83
2022/11/24 13:29:27;;;;;;;;;;;13.50;99.90;;;;;;6271923;22;19911;-85
2022/11/24 13:32:01;;;;;;;;;;;13.40;99.90;;;;;;6272119;22;19903;-86
2022/11/24 13:34:42;;;;;;;;;;;13.30;99.90;;;;;;6273155;22;19943;-85
2022/11/24 13:37:16;;;;;;;;;;;13.40;99.90;;;;;;6271898;22;19937;-87
2022/11/24 13:39:47;;;;;;;;;;;13.40;99.90;;;;;;6271900;22;20336;-88
2022/11/24 13:42:13;;;;;;;;;;;13.50;99.90;;;;;;6244842;22;20266;-87
2022/11/24 13:44:58;;;;;;;;;;;13.60;99.90;;;;;;6271945;22;19912;-89
2022/11/24 13:47:32;;;;;;;;;;;13.60;99.90;;;;;;6271692;22;19957;-89
2022/11/24 13:49:58;;;;;;;;;;;13.60;99.90;;;;;;6272670;22;19903;-88
2022/11/24 13:52:33;;;;;;;;;;;13.50;99.90;;;;;;6271939;22;20332;-84
2022/11/24 13:54:59;;;;;;;;;;;13.20;99.90;;;;;;6272985;22;19903;-87
2022/11/24 13:57:35;;;;;;;;;;;13.40;99.90;;;;;;6272216;22;19903;-84
2022/11/24 14:00:01;;;;;;;;;;;13.40;99.90;;;;;;6272659;22;19930;-83
2022/11/24 14:02:27;;;;;;;;;;;13.40;99.90;;;;;;6272511;22;20256;-88
2022/11/24 14:04:54;;;;;;;;;;;13.40;99.90;;;;;;6271838;22;20328;-87
2022/11/24 14:07:19;;;;;;;;;;;13.30;99.90;;;;;;6244564;22;20291;-89
2022/11/24 14:09:49;;;;;;;;;;;13.30;99.90;;;;;;6271829;22;19903;-91
2022/11/24 14:12:15;;;;;;;;;;;13.30;99.90;;;;;;6271640;22;19903;-88
2022/11/24 14:14:41;;;;;;;;;;;13.30;99.90;;;;;;6271768;22;19961;-89
2022/11/24 14:17:13;;;;;;;;;;;13.30;99.90;;;;;;6271824;22;19907;-86
2022/11/24 14:19:44;;;;;;;;;;;13.30;99.90;;;;;;6271674;22;19903;-84
2022/11/24 14:22:17;;;;;;;;;;;13.30;99.90;;;;;;6271733;22;19904;-84
2022/11/24 14:24:44;;;;;;;;;;;13.30;99.90;;;;;;6244391;22;19911;-85
2022/11/24 14:27:14;;;;;;;;;;;13.40;99.90;;;;;;6271697;22;20248;-86
2022/11/24 14:29:54;;;;;;;;;;;13.30;99.90;;;;;;6271820;22;19907;-84
2022/11/24 14:32:20;;;;;;;;;;;13.30;99.90;;;;;;6271798;22;19911;-84
2022/11/24 14:34:46;;;;;;;;;;;13.40;99.90;;;;;;6271651;22;19903;-83
2022/11/24 14:37:12;;;;;;;;;;;13.30;99.90;;;;;;6271572;22;20251;-85
2022/11/24 14:39:41;;;;;;;;;;;13.30;99.90;;;;;;6271535;22;19911;-84